sensor_id;sensor_type;location;lat;lon;timestamp;P1;durP1;ratioP1;P2;durP2;ratioP2
76228;SDS011;65021;53.174;18.160;2023-02-28T00:01:04;6.40;;;2.30;;
76228;SDS011;65021;53.174;18.160;2023-02-28T00:03:30;10.50;;;3.60;;
76228;SDS011;65021;53.174;18.160;2023-02-28T00:06:02;21.20;;;8.00;;
76228;SDS011;65021;53.174;18.160;2023-02-28T00:08:29;12.90;;;5.10;;
76228;SDS011;65021;53.174;18.160;2023-02-28T00:10:56;5.80;;;2.20;;
76228;SDS011;65021;53.174;18.160;2023-02-28T00:13:31;6.30;;;2.60;;
76228;SDS011;65021;53.174;18.160;2023-02-28T00:15:58;12.00;;;3.80;;
76228;SDS011;65021;53.174;18.160;2023-02-28T00:18:26;10.00;;;4.10;;
76228;SDS011;65021;53.174;18.160;2023-02-28T00:20:53;7.10;;;2.70;;
76228;SDS011;65021;53.174;18.160;2023-02-28T00:23:19;13.60;;;4.00;;
76228;SDS011;65021;53.174;18.160;2023-02-28T00:25:46;8.40;;;3.90;;
76228;SDS011;65021;53.174;18.160;2023-02-28T00:28:12;20.00;;;5.90;;
76228;SDS011;65021;53.174;18.160;2023-02-28T00:30:39;24.40;;;8.70;;
76228;SDS011;65021;53.174;18.160;2023-02-28T00:33:05;15.80;;;6.30;;
76228;SDS011;65021;53.174;18.160;2023-02-28T00:35:32;11.40;;;4.80;;
76228;SDS011;65021;53.174;18.160;2023-02-28T00:37:58;16.40;;;6.90;;
76228;SDS011;65021;53.174;18.160;2023-02-28T00:40:25;9.90;;;3.20;;
76228;SDS011;65021;53.174;18.160;2023-02-28T00:42:51;15.90;;;6.10;;
76228;SDS011;65021;53.174;18.160;2023-02-28T00:45:18;11.10;;;3.60;;
76228;SDS011;65021;53.174;18.160;2023-02-28T00:47:45;11.20;;;3.30;;
76228;SDS011;65021;53.174;18.160;2023-02-28T00:50:12;13.40;;;5.40;;
76228;SDS011;65021;53.174;18.160;2023-02-28T00:52:39;10.60;;;4.80;;
76228;SDS011;65021;53.174;18.160;2023-02-28T00:55:05;12.60;;;5.00;;
76228;SDS011;65021;53.174;18.160;2023-02-28T00:57:32;10.60;;;3.30;;
76228;SDS011;65021;53.174;18.160;2023-02-28T00:59:59;17.60;;;6.30;;
76228;SDS011;65021;53.174;18.160;2023-02-28T01:02:25;10.30;;;3.80;;
76228;SDS011;65021;53.174;18.160;2023-02-28T01:04:52;5.60;;;1.90;;
76228;SDS011;65021;53.174;18.160;2023-02-28T01:07:18;6.20;;;2.90;;
76228;SDS011;65021;53.174;18.160;2023-02-28T01:09:45;5.40;;;2.00;;
76228;SDS011;65021;53.174;18.160;2023-02-28T01:12:11;13.30;;;4.80;;
76228;SDS011;65021;53.174;18.160;2023-02-28T01:14:38;19.70;;;7.90;;
76228;SDS011;65021;53.174;18.160;2023-02-28T01:17:04;18.80;;;6.70;;
76228;SDS011;65021;53.174;18.160;2023-02-28T01:19:31;16.20;;;5.00;;
76228;SDS011;65021;53.174;18.160;2023-02-28T01:22:00;17.90;;;7.20;;
76228;SDS011;65021;53.174;18.160;2023-02-28T01:24:31;14.10;;;5.20;;
76228;SDS011;65021;53.174;18.160;2023-02-28T01:26:59;16.10;;;5.40;;
76228;SDS011;65021;53.174;18.160;2023-02-28T01:29:25;23.30;;;7.00;;
76228;SDS011;65021;53.174;18.160;2023-02-28T01:31:52;7.50;;;2.50;;
76228;SDS011;65021;53.174;18.160;2023-02-28T01:34:18;14.10;;;3.10;;
76228;SDS011;65021;53.174;18.160;2023-02-28T01:36:45;10.30;;;4.20;;
76228;SDS011;65021;53.174;18.160;2023-02-28T01:39:12;9.10;;;3.70;;
76228;SDS011;65021;53.174;18.160;2023-02-28T01:41:39;9.70;;;3.40;;
76228;SDS011;65021;53.174;18.160;2023-02-28T01:46:34;12.60;;;4.60;;
76228;SDS011;65021;53.174;18.160;2023-02-28T01:49:06;7.30;;;3.10;;
76228;SDS011;65021;53.174;18.160;2023-02-28T01:54:07;7.20;;;3.30;;
76228;SDS011;65021;53.174;18.160;2023-02-28T01:56:42;16.00;;;5.40;;
76228;SDS011;65021;53.174;18.160;2023-02-28T01:59:17;8.50;;;3.80;;
76228;SDS011;65021;53.174;18.160;2023-02-28T02:01:50;13.40;;;4.20;;
76228;SDS011;65021;53.174;18.160;2023-02-28T02:04:17;16.20;;;6.70;;
76228;SDS011;65021;53.174;18.160;2023-02-28T02:06:44;15.20;;;4.70;;
76228;SDS011;65021;53.174;18.160;2023-02-28T02:09:13;15.10;;;5.70;;
76228;SDS011;65021;53.174;18.160;2023-02-28T02:11:41;15.30;;;6.90;;
76228;SDS011;65021;53.174;18.160;2023-02-28T02:14:12;21.70;;;7.10;;
76228;SDS011;65021;53.174;18.160;2023-02-28T02:16:49;15.20;;;5.70;;
76228;SDS011;65021;53.174;18.160;2023-02-28T02:36:20;17.90;;;5.70;;
76228;SDS011;65021;53.174;18.160;2023-02-28T02:41:46;9.40;;;3.90;;
76228;SDS011;65021;53.174;18.160;2023-02-28T02:44:24;16.40;;;5.00;;
76228;SDS011;65021;53.174;18.160;2023-02-28T02:46:55;13.60;;;4.60;;
76228;SDS011;65021;53.174;18.160;2023-02-28T02:49:30;12.10;;;4.50;;
76228;SDS011;65021;53.174;18.160;2023-02-28T02:52:01;11.30;;;4.30;;
76228;SDS011;65021;53.174;18.160;2023-02-28T02:54:32;10.70;;;3.10;;
76228;SDS011;65021;53.174;18.160;2023-02-28T02:57:03;11.60;;;3.60;;
76228;SDS011;65021;53.174;18.160;2023-02-28T02:59:35;9.20;;;3.50;;
76228;SDS011;65021;53.174;18.160;2023-02-28T03:02:05;11.00;;;4.40;;
76228;SDS011;65021;53.174;18.160;2023-02-28T03:04:38;18.30;;;7.90;;
76228;SDS011;65021;53.174;18.160;2023-02-28T03:07:12;9.10;;;3.20;;
76228;SDS011;65021;53.174;18.160;2023-02-28T03:09:38;14.40;;;4.30;;
76228;SDS011;65021;53.174;18.160;2023-02-28T03:12:07;18.90;;;7.50;;
76228;SDS011;65021;53.174;18.160;2023-02-28T03:15:00;11.00;;;3.80;;
76228;SDS011;65021;53.174;18.160;2023-02-28T03:17:37;12.70;;;5.00;;
76228;SDS011;65021;53.174;18.160;2023-02-28T03:20:41;13.00;;;5.00;;
76228;SDS011;65021;53.174;18.160;2023-02-28T03:23:21;9.00;;;4.30;;
76228;SDS011;65021;53.174;18.160;2023-02-28T03:34:12;16.20;;;5.30;;
76228;SDS011;65021;53.174;18.160;2023-02-28T03:36:51;10.70;;;4.80;;
76228;SDS011;65021;53.174;18.160;2023-02-28T03:39:40;10.10;;;3.50;;
76228;SDS011;65021;53.174;18.160;2023-02-28T03:42:13;16.40;;;6.00;;
76228;SDS011;65021;53.174;18.160;2023-02-28T03:44:45;10.10;;;3.40;;
76228;SDS011;65021;53.174;18.160;2023-02-28T03:47:34;9.70;;;2.30;;
76228;SDS011;65021;53.174;18.160;2023-02-28T03:52:35;6.90;;;2.80;;
76228;SDS011;65021;53.174;18.160;2023-02-28T03:55:09;19.60;;;7.30;;
76228;SDS011;65021;53.174;18.160;2023-02-28T04:01:00;7.70;;;3.20;;
76228;SDS011;65021;53.174;18.160;2023-02-28T04:03:37;11.80;;;5.00;;
76228;SDS011;65021;53.174;18.160;2023-02-28T04:06:08;12.80;;;5.50;;
76228;SDS011;65021;53.174;18.160;2023-02-28T04:08:42;8.90;;;3.00;;
76228;SDS011;65021;53.174;18.160;2023-02-28T04:11:12;9.30;;;3.30;;
76228;SDS011;65021;53.174;18.160;2023-02-28T04:13:41;11.90;;;5.10;;
76228;SDS011;65021;53.174;18.160;2023-02-28T04:16:08;8.10;;;4.00;;
76228;SDS011;65021;53.174;18.160;2023-02-28T04:18:38;11.20;;;4.20;;
76228;SDS011;65021;53.174;18.160;2023-02-28T04:21:05;10.80;;;4.20;;
76228;SDS011;65021;53.174;18.160;2023-02-28T04:23:33;20.50;;;8.10;;
76228;SDS011;65021;53.174;18.160;2023-02-28T04:25:59;11.10;;;4.40;;
76228;SDS011;65021;53.174;18.160;2023-02-28T04:28:26;8.40;;;3.40;;
76228;SDS011;65021;53.174;18.160;2023-02-28T04:31:03;6.80;;;2.60;;
76228;SDS011;65021;53.174;18.160;2023-02-28T04:33:31;7.70;;;3.20;;
76228;SDS011;65021;53.174;18.160;2023-02-28T04:35:59;18.80;;;8.00;;
76228;SDS011;65021;53.174;18.160;2023-02-28T04:38:35;11.20;;;4.00;;
76228;SDS011;65021;53.174;18.160;2023-02-28T04:41:03;19.80;;;7.00;;
76228;SDS011;65021;53.174;18.160;2023-02-28T04:43:31;10.80;;;4.00;;
76228;SDS011;65021;53.174;18.160;2023-02-28T04:46:00;12.10;;;4.70;;
76228;SDS011;65021;53.174;18.160;2023-02-28T04:50:59;10.40;;;3.90;;
76228;SDS011;65021;53.174;18.160;2023-02-28T04:53:30;5.50;;;2.70;;
76228;SDS011;65021;53.174;18.160;2023-02-28T04:55:57;8.60;;;4.50;;
76228;SDS011;65021;53.174;18.160;2023-02-28T04:58:24;4.70;;;2.70;;
76228;SDS011;65021;53.174;18.160;2023-02-28T05:00:52;5.80;;;3.20;;
76228;SDS011;65021;53.174;18.160;2023-02-28T05:03:20;8.90;;;4.20;;
76228;SDS011;65021;53.174;18.160;2023-02-28T05:05:48;11.10;;;3.80;;
76228;SDS011;65021;53.174;18.160;2023-02-28T05:08:15;10.30;;;3.60;;
76228;SDS011;65021;53.174;18.160;2023-02-28T05:10:41;8.30;;;2.90;;
76228;SDS011;65021;53.174;18.160;2023-02-28T05:13:09;6.60;;;2.90;;
76228;SDS011;65021;53.174;18.160;2023-02-28T05:15:38;8.30;;;2.50;;
76228;SDS011;65021;53.174;18.160;2023-02-28T05:18:05;6.30;;;3.20;;
76228;SDS011;65021;53.174;18.160;2023-02-28T05:20:32;8.70;;;3.60;;
76228;SDS011;65021;53.174;18.160;2023-02-28T05:22:58;14.90;;;5.80;;
76228;SDS011;65021;53.174;18.160;2023-02-28T05:25:26;11.80;;;4.30;;
76228;SDS011;65021;53.174;18.160;2023-02-28T05:27:52;10.60;;;4.10;;
76228;SDS011;65021;53.174;18.160;2023-02-28T05:30:19;5.00;;;2.50;;
76228;SDS011;65021;53.174;18.160;2023-02-28T05:32:49;12.10;;;4.00;;
76228;SDS011;65021;53.174;18.160;2023-02-28T05:35:17;9.20;;;5.00;;
76228;SDS011;65021;53.174;18.160;2023-02-28T05:37:44;18.90;;;8.20;;
76228;SDS011;65021;53.174;18.160;2023-02-28T05:40:11;6.20;;;2.90;;
76228;SDS011;65021;53.174;18.160;2023-02-28T05:42:37;8.90;;;3.30;;
76228;SDS011;65021;53.174;18.160;2023-02-28T05:45:04;12.80;;;5.40;;
76228;SDS011;65021;53.174;18.160;2023-02-28T05:47:33;17.80;;;7.70;;
76228;SDS011;65021;53.174;18.160;2023-02-28T05:49:59;9.10;;;3.00;;
76228;SDS011;65021;53.174;18.160;2023-02-28T05:52:27;9.40;;;2.80;;
76228;SDS011;65021;53.174;18.160;2023-02-28T05:54:56;15.70;;;8.60;;
76228;SDS011;65021;53.174;18.160;2023-02-28T05:57:22;15.50;;;7.80;;
76228;SDS011;65021;53.174;18.160;2023-02-28T05:59:49;20.50;;;7.70;;
76228;SDS011;65021;53.174;18.160;2023-02-28T06:02:16;8.20;;;4.40;;
76228;SDS011;65021;53.174;18.160;2023-02-28T06:04:43;10.30;;;4.70;;
76228;SDS011;65021;53.174;18.160;2023-02-28T06:07:10;4.70;;;1.60;;
76228;SDS011;65021;53.174;18.160;2023-02-28T06:09:37;7.00;;;3.10;;
76228;SDS011;65021;53.174;18.160;2023-02-28T06:12:05;11.90;;;6.10;;
76228;SDS011;65021;53.174;18.160;2023-02-28T06:14:33;10.30;;;4.50;;
76228;SDS011;65021;53.174;18.160;2023-02-28T06:17:01;10.60;;;3.90;;
76228;SDS011;65021;53.174;18.160;2023-02-28T06:19:28;15.00;;;5.90;;
76228;SDS011;65021;53.174;18.160;2023-02-28T06:21:56;16.20;;;6.40;;
76228;SDS011;65021;53.174;18.160;2023-02-28T06:24:23;6.30;;;2.30;;
76228;SDS011;65021;53.174;18.160;2023-02-28T06:26:50;12.70;;;5.40;;
76228;SDS011;65021;53.174;18.160;2023-02-28T06:29:17;12.30;;;4.80;;
76228;SDS011;65021;53.174;18.160;2023-02-28T06:31:45;17.10;;;8.10;;
76228;SDS011;65021;53.174;18.160;2023-02-28T06:34:12;20.30;;;7.60;;
76228;SDS011;65021;53.174;18.160;2023-02-28T06:36:42;23.80;;;8.30;;
76228;SDS011;65021;53.174;18.160;2023-02-28T06:39:09;17.10;;;8.60;;
76228;SDS011;65021;53.174;18.160;2023-02-28T06:41:35;19.90;;;7.40;;
76228;SDS011;65021;53.174;18.160;2023-02-28T06:44:04;19.40;;;8.00;;
76228;SDS011;65021;53.174;18.160;2023-02-28T06:46:31;16.50;;;7.50;;
76228;SDS011;65021;53.174;18.160;2023-02-28T06:48:58;19.80;;;7.60;;
76228;SDS011;65021;53.174;18.160;2023-02-28T06:51:25;19.10;;;7.60;;
76228;SDS011;65021;53.174;18.160;2023-02-28T06:53:53;19.10;;;8.20;;
76228;SDS011;65021;53.174;18.160;2023-02-28T06:56:19;18.00;;;7.90;;
76228;SDS011;65021;53.174;18.160;2023-02-28T06:58:47;13.30;;;6.40;;
76228;SDS011;65021;53.174;18.160;2023-02-28T07:01:15;8.90;;;3.10;;
76228;SDS011;65021;53.174;18.160;2023-02-28T07:03:43;18.00;;;7.30;;
76228;SDS011;65021;53.174;18.160;2023-02-28T07:06:09;20.60;;;9.30;;
76228;SDS011;65021;53.174;18.160;2023-02-28T07:08:36;18.90;;;8.90;;
76228;SDS011;65021;53.174;18.160;2023-02-28T07:11:02;20.50;;;9.30;;
76228;SDS011;65021;53.174;18.160;2023-02-28T07:13:30;24.50;;;9.90;;
76228;SDS011;65021;53.174;18.160;2023-02-28T07:15:58;23.60;;;10.80;;
76228;SDS011;65021;53.174;18.160;2023-02-28T07:18:27;26.10;;;11.90;;
76228;SDS011;65021;53.174;18.160;2023-02-28T07:20:53;27.00;;;11.90;;
76228;SDS011;65021;53.174;18.160;2023-02-28T07:23:21;25.10;;;11.70;;
76228;SDS011;65021;53.174;18.160;2023-02-28T07:25:49;23.20;;;9.80;;
76228;SDS011;65021;53.174;18.160;2023-02-28T07:28:16;23.80;;;11.10;;
76228;SDS011;65021;53.174;18.160;2023-02-28T07:30:43;26.80;;;12.60;;
76228;SDS011;65021;53.174;18.160;2023-02-28T07:33:09;32.40;;;14.40;;
76228;SDS011;65021;53.174;18.160;2023-02-28T07:35:36;31.60;;;14.00;;
76228;SDS011;65021;53.174;18.160;2023-02-28T07:38:03;26.30;;;12.50;;
76228;SDS011;65021;53.174;18.160;2023-02-28T07:40:29;23.00;;;10.50;;
76228;SDS011;65021;53.174;18.160;2023-02-28T07:42:58;29.50;;;12.50;;
76228;SDS011;65021;53.174;18.160;2023-02-28T07:47:55;26.60;;;11.80;;
76228;SDS011;65021;53.174;18.160;2023-02-28T07:50:22;33.10;;;13.60;;
76228;SDS011;65021;53.174;18.160;2023-02-28T07:52:48;28.00;;;14.00;;
76228;SDS011;65021;53.174;18.160;2023-02-28T07:55:15;33.30;;;15.30;;
76228;SDS011;65021;53.174;18.160;2023-02-28T07:57:42;34.30;;;17.40;;
76228;SDS011;65021;53.174;18.160;2023-02-28T08:00:10;34.10;;;16.40;;
76228;SDS011;65021;53.174;18.160;2023-02-28T08:02:38;31.60;;;16.60;;
76228;SDS011;65021;53.174;18.160;2023-02-28T08:05:06;33.40;;;16.10;;
76228;SDS011;65021;53.174;18.160;2023-02-28T08:07:33;27.80;;;13.80;;
76228;SDS011;65021;53.174;18.160;2023-02-28T08:09:59;25.00;;;11.40;;
76228;SDS011;65021;53.174;18.160;2023-02-28T08:12:26;28.70;;;12.80;;
76228;SDS011;65021;53.174;18.160;2023-02-28T08:14:53;30.10;;;14.40;;
76228;SDS011;65021;53.174;18.160;2023-02-28T08:17:19;32.80;;;12.20;;
76228;SDS011;65021;53.174;18.160;2023-02-28T08:19:46;22.70;;;10.60;;
76228;SDS011;65021;53.174;18.160;2023-02-28T08:22:13;14.70;;;7.00;;
76228;SDS011;65021;53.174;18.160;2023-02-28T08:24:41;24.00;;;12.20;;
76228;SDS011;65021;53.174;18.160;2023-02-28T08:27:09;28.80;;;13.80;;
76228;SDS011;65021;53.174;18.160;2023-02-28T08:29:39;16.70;;;7.60;;
76228;SDS011;65021;53.174;18.160;2023-02-28T08:32:06;20.80;;;10.40;;
76228;SDS011;65021;53.174;18.160;2023-02-28T08:34:33;19.80;;;8.70;;
76228;SDS011;65021;53.174;18.160;2023-02-28T08:36:59;25.70;;;13.70;;
76228;SDS011;65021;53.174;18.160;2023-02-28T08:39:26;25.50;;;11.50;;
76228;SDS011;65021;53.174;18.160;2023-02-28T08:41:53;19.00;;;7.60;;
76228;SDS011;65021;53.174;18.160;2023-02-28T08:44:19;18.80;;;8.50;;
76228;SDS011;65021;53.174;18.160;2023-02-28T08:46:46;19.20;;;7.80;;
76228;SDS011;65021;53.174;18.160;2023-02-28T08:49:12;15.40;;;6.90;;
76228;SDS011;65021;53.174;18.160;2023-02-28T08:51:39;23.00;;;11.00;;
76228;SDS011;65021;53.174;18.160;2023-02-28T08:54:05;20.70;;;9.80;;
76228;SDS011;65021;53.174;18.160;2023-02-28T08:56:32;18.30;;;7.40;;
76228;SDS011;65021;53.174;18.160;2023-02-28T08:58:58;14.90;;;5.40;;
76228;SDS011;65021;53.174;18.160;2023-02-28T09:01:26;24.50;;;10.50;;
76228;SDS011;65021;53.174;18.160;2023-02-28T09:03:55;16.70;;;6.70;;
76228;SDS011;65021;53.174;18.160;2023-02-28T09:06:22;15.00;;;7.20;;
76228;SDS011;65021;53.174;18.160;2023-02-28T09:08:51;19.20;;;8.20;;
76228;SDS011;65021;53.174;18.160;2023-02-28T09:11:18;18.10;;;9.10;;
76228;SDS011;65021;53.174;18.160;2023-02-28T09:13:45;18.20;;;9.00;;
76228;SDS011;65021;53.174;18.160;2023-02-28T09:16:13;10.70;;;4.30;;
76228;SDS011;65021;53.174;18.160;2023-02-28T09:18:42;13.50;;;5.30;;
76228;SDS011;65021;53.174;18.160;2023-02-28T09:21:11;11.30;;;5.70;;
76228;SDS011;65021;53.174;18.160;2023-02-28T09:23:42;8.90;;;3.20;;
76228;SDS011;65021;53.174;18.160;2023-02-28T09:26:17;6.20;;;3.10;;
76228;SDS011;65021;53.174;18.160;2023-02-28T09:28:46;6.80;;;2.80;;
76228;SDS011;65021;53.174;18.160;2023-02-28T09:31:16;7.50;;;3.20;;
76228;SDS011;65021;53.174;18.160;2023-02-28T09:33:48;13.00;;;6.40;;
76228;SDS011;65021;53.174;18.160;2023-02-28T09:36:17;6.10;;;3.00;;
76228;SDS011;65021;53.174;18.160;2023-02-28T09:38:44;14.00;;;5.40;;
76228;SDS011;65021;53.174;18.160;2023-02-28T09:41:17;10.80;;;5.30;;
76228;SDS011;65021;53.174;18.160;2023-02-28T09:43:47;9.90;;;4.40;;
76228;SDS011;65021;53.174;18.160;2023-02-28T09:46:25;12.20;;;5.80;;
76228;SDS011;65021;53.174;18.160;2023-02-28T09:49:00;7.60;;;2.60;;
76228;SDS011;65021;53.174;18.160;2023-02-28T09:51:50;8.10;;;3.80;;
76228;SDS011;65021;53.174;18.160;2023-02-28T09:54:22;9.50;;;4.10;;
76228;SDS011;65021;53.174;18.160;2023-02-28T10:04:38;8.30;;;2.50;;
76228;SDS011;65021;53.174;18.160;2023-02-28T10:12:46;8.00;;;2.80;;
76228;SDS011;65021;53.174;18.160;2023-02-28T10:15:15;8.20;;;2.90;;
76228;SDS011;65021;53.174;18.160;2023-02-28T10:17:44;6.90;;;3.00;;
76228;SDS011;65021;53.174;18.160;2023-02-28T10:20:15;7.50;;;2.60;;
76228;SDS011;65021;53.174;18.160;2023-02-28T10:25:23;7.90;;;4.00;;
76228;SDS011;65021;53.174;18.160;2023-02-28T10:28:08;8.30;;;2.50;;
76228;SDS011;65021;53.174;18.160;2023-02-28T10:30:37;5.20;;;2.00;;
76228;SDS011;65021;53.174;18.160;2023-02-28T10:35:58;3.80;;;1.60;;
76228;SDS011;65021;53.174;18.160;2023-02-28T10:38:26;3.90;;;1.40;;
76228;SDS011;65021;53.174;18.160;2023-02-28T10:41:05;7.50;;;2.70;;
76228;SDS011;65021;53.174;18.160;2023-02-28T10:43:32;5.70;;;1.60;;
76228;SDS011;65021;53.174;18.160;2023-02-28T10:46:03;9.20;;;3.30;;
76228;SDS011;65021;53.174;18.160;2023-02-28T10:48:43;6.50;;;2.50;;
76228;SDS011;65021;53.174;18.160;2023-02-28T10:51:13;5.80;;;2.70;;
76228;SDS011;65021;53.174;18.160;2023-02-28T10:53:45;9.80;;;2.40;;
76228;SDS011;65021;53.174;18.160;2023-02-28T10:58:58;8.00;;;2.60;;
76228;SDS011;65021;53.174;18.160;2023-02-28T11:03:55;7.10;;;3.30;;
76228;SDS011;65021;53.174;18.160;2023-02-28T11:06:25;5.10;;;2.50;;
76228;SDS011;65021;53.174;18.160;2023-02-28T11:09:02;9.00;;;3.60;;
76228;SDS011;65021;53.174;18.160;2023-02-28T11:11:41;10.00;;;3.20;;
76228;SDS011;65021;53.174;18.160;2023-02-28T11:14:27;6.20;;;3.10;;
76228;SDS011;65021;53.174;18.160;2023-02-28T11:16:58;4.40;;;1.80;;
76228;SDS011;65021;53.174;18.160;2023-02-28T11:19:44;4.40;;;1.80;;
76228;SDS011;65021;53.174;18.160;2023-02-28T11:22:23;6.10;;;2.20;;
76228;SDS011;65021;53.174;18.160;2023-02-28T11:24:59;7.00;;;2.80;;
76228;SDS011;65021;53.174;18.160;2023-02-28T11:30:00;7.00;;;1.80;;
76228;SDS011;65021;53.174;18.160;2023-02-28T11:32:27;5.90;;;2.50;;
76228;SDS011;65021;53.174;18.160;2023-02-28T11:35:00;4.80;;;1.70;;
76228;SDS011;65021;53.174;18.160;2023-02-28T11:37:40;4.60;;;1.70;;
76228;SDS011;65021;53.174;18.160;2023-02-28T11:40:18;5.90;;;2.60;;
76228;SDS011;65021;53.174;18.160;2023-02-28T11:43:01;7.30;;;2.80;;
76228;SDS011;65021;53.174;18.160;2023-02-28T11:50:56;4.30;;;1.80;;
76228;SDS011;65021;53.174;18.160;2023-02-28T12:07:14;6.50;;;2.50;;
76228;SDS011;65021;53.174;18.160;2023-02-28T12:12:19;6.10;;;2.00;;
76228;SDS011;65021;53.174;18.160;2023-02-28T12:29:13;9.60;;;3.20;;
76228;SDS011;65021;53.174;18.160;2023-02-28T12:34:52;16.00;;;4.20;;
76228;SDS011;65021;53.174;18.160;2023-02-28T12:40:19;7.00;;;2.70;;
76228;SDS011;65021;53.174;18.160;2023-02-28T12:42:58;9.10;;;3.40;;
76228;SDS011;65021;53.174;18.160;2023-02-28T12:45:36;6.60;;;2.80;;
76228;SDS011;65021;53.174;18.160;2023-02-28T12:48:08;8.00;;;3.30;;
76228;SDS011;65021;53.174;18.160;2023-02-28T12:50:40;8.50;;;3.60;;
76228;SDS011;65021;53.174;18.160;2023-02-28T12:53:21;5.90;;;2.30;;
76228;SDS011;65021;53.174;18.160;2023-02-28T12:56:09;6.90;;;3.20;;
76228;SDS011;65021;53.174;18.160;2023-02-28T12:58:56;8.70;;;3.60;;
76228;SDS011;65021;53.174;18.160;2023-02-28T13:01:34;7.20;;;2.80;;
76228;SDS011;65021;53.174;18.160;2023-02-28T13:09:59;5.90;;;2.90;;
76228;SDS011;65021;53.174;18.160;2023-02-28T13:12:28;6.10;;;2.90;;
76228;SDS011;65021;53.174;18.160;2023-02-28T13:15:03;7.80;;;2.60;;
76228;SDS011;65021;53.174;18.160;2023-02-28T13:17:31;7.70;;;2.70;;
76228;SDS011;65021;53.174;18.160;2023-02-28T13:19:58;6.10;;;2.50;;
76228;SDS011;65021;53.174;18.160;2023-02-28T13:24:53;6.80;;;2.80;;
76228;SDS011;65021;53.174;18.160;2023-02-28T13:27:21;5.20;;;2.10;;
76228;SDS011;65021;53.174;18.160;2023-02-28T13:32:31;6.60;;;2.30;;
76228;SDS011;65021;53.174;18.160;2023-02-28T13:39:53;6.10;;;2.00;;
76228;SDS011;65021;53.174;18.160;2023-02-28T13:42:54;5.00;;;2.20;;
76228;SDS011;65021;53.174;18.160;2023-02-28T13:45:23;4.90;;;1.90;;
76228;SDS011;65021;53.174;18.160;2023-02-28T13:47:52;4.40;;;1.30;;
76228;SDS011;65021;53.174;18.160;2023-02-28T14:01:36;3.60;;;1.20;;
76228;SDS011;65021;53.174;18.160;2023-02-28T14:07:08;4.80;;;1.60;;
76228;SDS011;65021;53.174;18.160;2023-02-28T14:09:45;6.20;;;2.20;;
76228;SDS011;65021;53.174;18.160;2023-02-28T14:15:44;4.30;;;1.30;;
76228;SDS011;65021;53.174;18.160;2023-02-28T14:20:53;3.40;;;1.50;;
76228;SDS011;65021;53.174;18.160;2023-02-28T14:23:33;4.10;;;1.20;;
76228;SDS011;65021;53.174;18.160;2023-02-28T14:31:32;6.20;;;1.40;;
76228;SDS011;65021;53.174;18.160;2023-02-28T14:36:39;6.50;;;2.10;;
76228;SDS011;65021;53.174;18.160;2023-02-28T14:41:45;6.00;;;1.90;;
76228;SDS011;65021;53.174;18.160;2023-02-28T14:44:19;4.90;;;1.50;;
76228;SDS011;65021;53.174;18.160;2023-02-28T14:46:52;7.80;;;2.50;;
76228;SDS011;65021;53.174;18.160;2023-02-28T14:49:30;6.50;;;2.10;;
76228;SDS011;65021;53.174;18.160;2023-02-28T14:52:05;5.20;;;1.50;;
76228;SDS011;65021;53.174;18.160;2023-02-28T14:54:38;7.20;;;2.50;;
76228;SDS011;65021;53.174;18.160;2023-02-28T14:57:06;5.60;;;2.10;;
76228;SDS011;65021;53.174;18.160;2023-02-28T14:59:46;5.50;;;2.00;;
76228;SDS011;65021;53.174;18.160;2023-02-28T15:02:20;3.10;;;1.40;;
76228;SDS011;65021;53.174;18.160;2023-02-28T15:04:52;4.10;;;1.30;;
76228;SDS011;65021;53.174;18.160;2023-02-28T15:07:23;7.50;;;2.90;;
76228;SDS011;65021;53.174;18.160;2023-02-28T15:12:35;7.30;;;3.00;;
76228;SDS011;65021;53.174;18.160;2023-02-28T15:15:05;5.40;;;2.30;;
76228;SDS011;65021;53.174;18.160;2023-02-28T15:17:40;5.90;;;2.40;;
76228;SDS011;65021;53.174;18.160;2023-02-28T15:20:12;6.20;;;1.80;;
76228;SDS011;65021;53.174;18.160;2023-02-28T15:22:42;5.70;;;2.60;;
76228;SDS011;65021;53.174;18.160;2023-02-28T15:25:10;6.00;;;2.20;;
76228;SDS011;65021;53.174;18.160;2023-02-28T15:27:44;6.70;;;2.60;;
76228;SDS011;65021;53.174;18.160;2023-02-28T15:30:18;7.50;;;2.20;;
76228;SDS011;65021;53.174;18.160;2023-02-28T15:33:01;6.60;;;2.00;;
76228;SDS011;65021;53.174;18.160;2023-02-28T15:35:49;8.70;;;2.30;;
76228;SDS011;65021;53.174;18.160;2023-02-28T15:38:26;8.00;;;2.50;;
76228;SDS011;65021;53.174;18.160;2023-02-28T15:40:57;8.60;;;3.50;;
76228;SDS011;65021;53.174;18.160;2023-02-28T15:46:03;5.10;;;2.20;;
76228;SDS011;65021;53.174;18.160;2023-02-28T15:48:37;10.70;;;3.00;;
76228;SDS011;65021;53.174;18.160;2023-02-28T15:51:22;10.40;;;3.70;;
76228;SDS011;65021;53.174;18.160;2023-02-28T15:56:28;6.20;;;2.70;;
76228;SDS011;65021;53.174;18.160;2023-02-28T15:59:05;10.00;;;3.40;;
76228;SDS011;65021;53.174;18.160;2023-02-28T16:01:39;7.40;;;2.30;;
76228;SDS011;65021;53.174;18.160;2023-02-28T16:04:11;9.40;;;2.90;;
76228;SDS011;65021;53.174;18.160;2023-02-28T16:09:27;7.20;;;2.10;;
76228;SDS011;65021;53.174;18.160;2023-02-28T16:11:54;10.80;;;3.90;;
76228;SDS011;65021;53.174;18.160;2023-02-28T16:16:54;10.80;;;3.50;;
76228;SDS011;65021;53.174;18.160;2023-02-28T16:19:22;14.20;;;4.30;;
76228;SDS011;65021;53.174;18.160;2023-02-28T16:21:50;11.10;;;2.90;;
76228;SDS011;65021;53.174;18.160;2023-02-28T16:24:17;17.40;;;4.70;;
76228;SDS011;65021;53.174;18.160;2023-02-28T16:26:45;16.20;;;4.80;;
76228;SDS011;65021;53.174;18.160;2023-02-28T16:29:35;18.70;;;6.70;;
76228;SDS011;65021;53.174;18.160;2023-02-28T16:32:06;21.10;;;6.60;;
76228;SDS011;65021;53.174;18.160;2023-02-28T16:36:59;20.60;;;7.90;;
76228;SDS011;65021;53.174;18.160;2023-02-28T16:39:25;20.60;;;8.00;;
76228;SDS011;65021;53.174;18.160;2023-02-28T16:41:52;22.40;;;9.50;;
76228;SDS011;65021;53.174;18.160;2023-02-28T16:44:29;14.50;;;5.90;;
76228;SDS011;65021;53.174;18.160;2023-02-28T16:47:00;13.50;;;4.90;;
76228;SDS011;65021;53.174;18.160;2023-02-28T16:49:28;9.60;;;4.10;;
76228;SDS011;65021;53.174;18.160;2023-02-28T16:51:54;6.60;;;2.70;;
76228;SDS011;65021;53.174;18.160;2023-02-28T16:54:21;13.80;;;3.70;;
76228;SDS011;65021;53.174;18.160;2023-02-28T16:56:48;9.90;;;3.50;;
76228;SDS011;65021;53.174;18.160;2023-02-28T16:59:18;9.70;;;3.70;;
76228;SDS011;65021;53.174;18.160;2023-02-28T17:01:48;8.10;;;3.60;;
76228;SDS011;65021;53.174;18.160;2023-02-28T17:04:15;7.50;;;3.10;;
76228;SDS011;65021;53.174;18.160;2023-02-28T17:06:42;9.10;;;3.80;;
76228;SDS011;65021;53.174;18.160;2023-02-28T17:09:14;11.00;;;4.10;;
76228;SDS011;65021;53.174;18.160;2023-02-28T17:11:48;9.50;;;3.80;;
76228;SDS011;65021;53.174;18.160;2023-02-28T17:14:15;9.70;;;3.80;;
76228;SDS011;65021;53.174;18.160;2023-02-28T17:16:42;13.00;;;4.70;;
76228;SDS011;65021;53.174;18.160;2023-02-28T17:19:11;8.30;;;2.80;;
76228;SDS011;65021;53.174;18.160;2023-02-28T17:21:40;10.70;;;3.60;;
76228;SDS011;65021;53.174;18.160;2023-02-28T17:24:10;8.10;;;3.20;;
76228;SDS011;65021;53.174;18.160;2023-02-28T17:26:40;11.20;;;3.90;;
76228;SDS011;65021;53.174;18.160;2023-02-28T17:29:19;9.50;;;3.90;;
76228;SDS011;65021;53.174;18.160;2023-02-28T17:31:47;15.10;;;5.00;;
76228;SDS011;65021;53.174;18.160;2023-02-28T17:34:14;17.90;;;5.20;;
76228;SDS011;65021;53.174;18.160;2023-02-28T17:36:47;46.20;;;14.90;;
76228;SDS011;65021;53.174;18.160;2023-02-28T17:39:18;42.60;;;14.50;;